Time;durP1;ratioP1;P1;durP2;ratioP2;P2;SDS_P1;SDS_P2;PMS_P1;PMS_P2;Temp;Humidity;BMP_temperature;BMP_pressure;BME280_temperature;BME280_humidity;BME280_pressure;Samples;Min_cycle;Max_cycle;Signal;HPM_P1;HPM_P2
2022/11/02 00:01:21;;;;;;;20.45;10.35;;;;;;;18.70;57.20;98577.28;5280469;27;20046;-80
2022/11/02 00:03:48;;;;;;;23.17;10.93;;;;;;;17.39;61.43;98572.69;5280249;27;20096;-80
2022/11/02 00:06:14;;;;;;;20.83;11.18;;;;;;;17.74;60.80;98567.91;5298995;27;20068;-80
2022/11/02 00:08:41;;;;;;;22.77;10.57;;;;;;;17.30;62.06;98581.94;5299593;27;20053;-80
2022/11/02 00:11:08;;;;;;;27.98;11.95;;;;;;;18.24;59.92;98575.09;5299625;27;20041;-80
2022/11/02 00:13:35;;;;;;;24.98;11.32;;;;;;;18.29;60.21;98575.66;5299011;27;20058;-80
2022/11/02 00:16:09;;;;;;;22.17;11.18;;;;;;;18.24;60.58;98577.69;5299403;27;20435;-80
2022/11/02 00:18:36;;;;;;;23.92;10.90;;;;;;;17.93;61.83;98578.84;5299585;27;20064;-80
2022/11/02 00:21:03;;;;;;;23.67;11.35;;;;;;;18.00;62.20;98577.53;5299136;27;20060;-80
2022/11/02 00:23:30;;;;;;;21.05;10.57;;;;;;;18.11;61.83;98571.62;5299533;27;20099;-80
2022/11/02 00:25:58;;;;;;;23.60;10.77;;;;;;;18.22;61.16;98571.75;5298833;27;20061;-80
2022/11/02 00:28:28;;;;;;;21.83;10.32;;;;;;;18.83;59.62;98564.25;5280625;27;20407;-80
2022/11/02 00:30:55;;;;;;;20.45;10.27;;;;;;;18.62;59.57;98566.50;5299496;27;20045;-80
2022/11/02 00:33:22;;;;;;;21.45;10.18;;;;;;;17.80;62.02;98575.34;5299135;27;20057;-80
2022/11/02 00:35:49;;;;;;;22.48;10.75;;;;;;;17.64;62.61;98572.84;5299291;27;20053;-80
2022/11/02 00:38:16;;;;;;;24.45;10.35;;;;;;;18.05;61.65;98580.66;5299592;27;20065;-80
2022/11/02 00:40:43;;;;;;;21.70;9.82;;;;;;;18.55;58.99;98578.28;5299111;27;20045;-80
2022/11/02 00:43:09;;;;;;;21.92;10.57;;;;;;;17.44;62.63;98584.53;5299612;27;20064;-80
2022/11/02 00:45:37;;;;;;;21.80;10.18;;;;;;;17.54;62.66;98584.78;5299364;27;20072;-80
2022/11/02 00:48:04;;;;;;;22.40;10.40;;;;;;;17.59;62.52;98582.72;5299341;27;20084;-81
2022/11/02 00:50:32;;;;;;;20.45;9.95;;;;;;;17.72;61.95;98578.44;5299607;27;20483;-81
2022/11/02 00:52:59;;;;;;;21.40;10.70;;;;;;;17.49;62.11;98565.97;5299870;27;20060;-81
2022/11/02 00:55:25;;;;;;;23.60;10.13;;;;;;;18.16;60.13;98562.53;5299357;27;20064;-81
2022/11/02 00:57:53;;;;;;;24.25;10.23;;;;;;;18.38;59.55;98553.28;5299984;27;20108;-80
2022/11/02 01:00:19;;;;;;;22.55;10.95;;;;;;;18.42;60.04;98558.22;5299835;27;20045;-80
2022/11/02 01:02:46;;;;;;;25.77;10.45;;;;;;;17.70;63.26;98553.37;5299097;27;20095;-80
2022/11/02 01:05:14;;;;;;;23.98;10.35;;;;;;;17.20;66.11;98558.19;5299313;27;20482;-80
2022/11/02 01:07:41;;;;;;;24.80;9.80;;;;;;;17.67;64.95;98570.06;5299083;27;20053;-80
2022/11/02 01:10:09;;;;;;;23.02;10.45;;;;;;;17.13;66.67;98566.50;5298895;27;20062;-81
2022/11/02 01:12:38;;;;;;;22.80;10.25;;;;;;;17.49;65.78;98569.44;5299207;27;20062;-80
2022/11/02 01:15:06;;;;;;;24.60;10.82;;;;;;;17.58;66.36;98563.62;5298443;27;20548;-80
2022/11/02 01:17:34;;;;;;;21.37;10.00;;;;;;;17.24;67.50;98567.50;5299151;27;20108;-80
2022/11/02 01:20:01;;;;;;;20.67;10.85;;;;;;;17.45;66.81;98581.00;5299251;27;20060;-80
2022/11/02 01:22:28;;;;;;;22.90;10.77;;;;;;;18.18;62.59;98567.63;5279416;27;20074;-80
2022/11/02 01:24:55;;;;;;;20.85;10.75;;;;;;;18.51;61.59;98562.00;5299042;27;20427;-80
2022/11/02 01:27:22;;;;;;;23.15;11.88;;;;;;;18.94;58.52;98559.13;5299229;27;20045;-80
2022/11/02 01:29:48;;;;;;;27.50;11.93;;;;;;;18.22;61.00;98548.25;5298784;27;20046;-80
2022/11/02 01:32:15;;;;;;;24.98;11.98;;;;;;;18.09;62.53;98568.28;5299702;27;20061;-80
2022/11/02 01:34:42;;;;;;;25.80;11.90;;;;;;;17.22;64.72;98553.69;5300210;27;20057;-80
2022/11/02 01:37:09;;;;;;;25.92;12.98;;;;;;;16.63;67.68;98563.34;5280419;27;20048;-80
2022/11/02 01:39:36;;;;;;;26.87;12.88;;;;;;;17.10;66.21;98567.50;5300080;27;20046;-80
2022/11/02 01:42:03;;;;;;;25.92;11.90;;;;;;;16.98;66.96;98563.88;5300152;27;20130;-80
2022/11/02 01:44:32;;;;;;;25.45;11.75;;;;;;;16.35;69.53;98565.88;5280340;27;20072;-80
2022/11/02 01:47:05;;;;;;;23.62;11.88;;;;;;;16.28;69.47;98560.22;5300188;27;20056;-80
2022/11/02 01:49:35;;;;;;;25.35;12.57;;;;;;;16.58;68.38;98573.19;5280621;27;20045;-80
2022/11/02 01:52:08;;;;;;;23.35;11.18;;;;;;;16.67;67.79;98583.06;5299906;27;20061;-80
2022/11/02 01:54:42;;;;;;;23.65;10.48;;;;;;;16.83;67.32;98571.78;5280692;27;20343;-80
2022/11/02 01:57:12;;;;;;;23.87;10.93;;;;;;;17.35;65.64;98572.91;5280288;27;20052;-80
2022/11/02 01:59:55;;;;;;;21.12;11.27;;;;;;;16.95;66.60;98573.66;5280733;27;20049;-80
2022/11/02 02:02:23;;;;;;;23.65;10.90;;;;;;;16.67;66.36;98571.81;5300302;27;20098;-80
2022/11/02 02:04:55;;;;;;;21.73;11.05;;;;;;;17.29;63.82;98575.03;5299614;27;20057;-80
2022/11/02 02:07:23;;;;;;;29.70;10.48;;;;;;;16.92;66.26;98579.06;5280643;27;20332;-80
2022/11/02 02:09:51;;;;;;;21.27;10.85;;;;;;;16.78;65.65;98577.25;5280611;27;20045;-80
2022/11/02 02:12:18;;;;;;;23.70;10.45;;;;;;;17.22;63.66;98571.97;5300135;27;20109;-80
2022/11/02 02:14:46;;;;;;;20.88;9.73;;;;;;;17.16;65.00;98571.50;5276650;27;20483;-80
2022/11/02 02:17:28;;;;;;;22.60;10.63;;;;;;;17.68;64.25;98578.72;5276928;27;20103;-80
2022/11/02 02:20:07;;;;;;;18.23;9.13;;;;;;;17.34;66.21;98573.00;5277791;27;20098;-80
2022/11/02 02:22:37;;;;;;;21.52;11.23;;;;;;;18.26;62.46;98572.38;5278513;27;20087;-80
2022/11/02 02:25:33;;;;;;;22.30;10.18;;;;;;;18.29;60.44;98578.25;5277703;27;20061;-80
2022/11/02 02:28:12;;;;;;;16.58;8.50;;;;;;;17.67;61.23;98577.88;5277989;26;20057;-80
2022/11/02 02:30:43;;;;;;;18.15;9.27;;;;;;;17.25;66.03;98587.44;5277999;27;20049;-80
2022/11/02 02:33:13;;;;;;;19.20;8.93;;;;;;;16.59;68.85;98582.72;5277769;27;20054;-80
2022/11/02 02:35:54;;;;;;;18.75;9.07;;;;;;;17.49;66.31;98586.84;5278126;27;20065;-80
2022/11/02 02:38:39;;;;;;;20.58;8.48;;;;;;;17.79;65.80;98579.75;5276626;27;20407;-80
2022/11/02 02:41:13;;;;;;;18.95;8.43;;;;;;;17.81;65.68;98585.69;5276401;27;20461;-80
2022/11/02 02:43:49;;;;;;;17.42;8.55;;;;;;;18.09;64.61;98583.94;5277668;27;20058;-80
2022/11/02 02:46:44;;;;;;;18.45;9.02;;;;;;;18.04;65.07;98581.59;5276211;27;20072;-80
2022/11/02 02:49:19;;;;;;;21.15;8.90;;;;;;;17.75;65.97;98582.63;5273611;27;20053;-80
2022/11/02 02:51:46;;;;;;;19.45;9.95;;;;;;;17.82;65.96;98576.94;5276925;27;20053;-80
2022/11/02 02:54:40;;;;;;;19.50;9.35;;;;;;;18.48;63.70;98575.25;5276323;27;20061;-80
2022/11/02 02:57:10;;;;;;;19.75;9.57;;;;;;;19.08;60.79;98574.69;5272291;27;20423;-80
2022/11/02 02:59:40;;;;;;;20.55;8.65;;;;;;;18.15;64.43;98579.12;5276799;27;20072;-80
2022/11/02 03:02:24;;;;;;;18.02;8.80;;;;;;;18.58;63.62;98585.91;5276648;27;20091;-80
2022/11/02 03:04:51;;;;;;;19.23;9.27;;;;;;;18.08;65.06;98580.50;5276878;27;20440;-80
2022/11/02 03:07:31;;;;;;;18.27;9.05;;;;;;;18.13;65.88;98588.84;5277705;27;20057;-80
2022/11/02 03:10:16;;;;;;;21.35;9.15;;;;;;;18.83;63.25;98587.78;5276919;27;20438;-80
2022/11/02 03:13:06;;;;;;;20.62;9.75;;;;;;;18.23;65.18;98596.09;5276821;27;20046;-80
2022/11/02 03:15:36;;;;;;;19.17;9.15;;;;;;;18.23;66.23;98599.53;5277313;27;20108;-80
2022/11/02 03:18:25;;;;;;;19.02;9.18;;;;;;;18.82;63.75;98602.62;5277896;27;20133;-80
2022/11/02 03:20:58;;;;;;;19.00;9.38;;;;;;;18.33;65.28;98605.84;5277998;27;20049;-80
2022/11/02 03:23:27;;;;;;;17.37;9.07;;;;;;;18.02;65.29;98609.59;5277713;27;20046;-80
2022/11/02 03:25:54;;;;;;;21.98;9.98;;;;;;;18.16;65.74;98609.53;5277831;27;20401;-80
2022/11/02 03:28:47;;;;;;;18.52;9.02;;;;;;;18.13;65.55;98604.53;5277657;27;20057;-80
2022/11/02 03:31:33;;;;;;;18.80;9.00;;;;;;;18.19;65.07;98609.34;5277980;27;20358;-80
2022/11/02 03:34:31;;;;;;;18.98;10.30;;;;;;;18.18;65.14;98617.25;5277899;27;20099;-80
2022/11/02 03:37:06;;;;;;;21.87;10.27;;;;;;;18.07;65.97;98619.72;5276239;27;20076;-80
2022/11/02 03:39:43;;;;;;;19.80;9.40;;;;;;;18.33;64.49;98613.69;5276726;27;20085;-80
2022/11/02 03:42:13;;;;;;;21.23;10.10;;;;;;;17.80;66.67;98615.34;5276589;27;20396;-80
2022/11/02 03:44:40;;;;;;;19.92;9.63;;;;;;;18.25;64.87;98617.72;5276442;27;20094;-80
2022/11/02 03:47:10;;;;;;;19.42;9.88;;;;;;;18.41;64.42;98619.25;5277903;27;20069;-80
2022/11/02 03:49:39;;;;;;;22.45;10.82;;;;;;;18.46;63.74;98621.53;5276392;27;20072;-80
2022/11/02 03:52:09;;;;;;;20.48;9.85;;;;;;;18.37;64.84;98619.53;5276914;27;20088;-80
2022/11/02 03:54:57;;;;;;;21.10;10.20;;;;;;;18.50;64.49;98625.62;5276294;27;20041;-80
2022/11/02 03:57:38;;;;;;;20.65;10.40;;;;;;;18.90;62.97;98628.22;5277404;27;20077;-80
2022/11/02 04:00:07;;;;;;;23.10;10.55;;;;;;;18.71;64.03;98626.84;5277931;27;20058;-80
2022/11/02 04:02:36;;;;;;;23.42;10.93;;;;;;;18.60;64.45;98626.69;5277889;27;20064;-80
2022/11/02 04:05:04;;;;;;;23.75;10.10;;;;;;;18.97;63.35;98632.13;5277273;27;20046;-80
2022/11/02 04:08:19;;;;;;;23.38;10.93;;;;;;;18.70;64.72;98629.56;5277655;27;20058;-80
2022/11/02 04:10:25;;;;;;;23.15;10.38;;;;;;;18.74;64.53;98629.28;5276258;27;20061;-80
2022/11/02 04:15:37;;;;;;;26.10;10.85;;;;;;;18.62;65.01;98635.28;5277429;27;20111;-80
2022/11/02 04:20:50;;;;;;;21.42;10.90;;;;;;;18.80;65.50;98620.16;5277818;27;20061;-80
2022/11/02 04:26:10;;;;;;;24.05;11.30;;;;;;;18.59;66.13;98625.00;5252118;27;20063;-80
2022/11/02 04:28:37;;;;;;;20.48;10.90;;;;;;;19.84;61.92;98631.31;5277796;27;20159;-80
2022/11/02 04:31:04;;;;;;;24.70;12.05;;;;;;;18.99;64.36;98623.22;5278154;27;20075;-80
2022/11/02 04:33:34;;;;;;;22.50;11.18;;;;;;;19.21;64.26;98622.59;5277841;27;20050;-80
2022/11/02 04:36:03;;;;;;;22.33;11.50;;;;;;;19.56;62.84;98621.94;5277685;27;20041;-80
2022/11/02 04:38:39;;;;;;;21.65;11.07;;;;;;;19.53;62.70;98630.81;5277634;27;20064;-80
2022/11/02 04:44:02;;;;;;;21.25;11.05;;;;;;;19.58;61.62;98641.00;5277876;27;20050;-80
2022/11/02 04:46:32;;;;;;;22.42;10.57;;;;;;;19.22;63.15;98637.34;5277306;27;20356;-80
2022/11/02 04:48:59;;;;;;;22.98;10.85;;;;;;;19.35;63.14;98639.94;5277584;27;20065;-81
2022/11/02 04:51:27;;;;;;;22.92;11.18;;;;;;;19.26;63.36;98633.59;5277833;27;20652;-81
2022/11/02 04:53:56;;;;;;;23.08;11.60;;;;;;;19.35;63.30;98626.84;5277367;27;20068;-81
2022/11/02 04:56:24;;;;;;;23.67;10.35;;;;;;;19.83;61.79;98638.31;5277620;27;20060;-81
2022/11/02 04:58:53;;;;;;;24.10;11.65;;;;;;;19.47;62.75;98633.88;5276405;27;20400;-81
2022/11/02 05:01:22;;;;;;;25.95;12.13;;;;;;;19.55;62.63;98638.56;5277382;27;20099;-81
2022/11/02 05:03:50;;;;;;;28.17;11.85;;;;;;;19.80;61.60;98641.16;5276487;27;20424;-81
2022/11/02 05:06:18;;;;;;;23.33;11.45;;;;;;;19.99;60.98;98642.47;5277453;27;20110;-81
2022/11/02 05:08:45;;;;;;;21.65;11.45;;;;;;;20.68;58.14;98648.78;5276811;27;20081;-81
2022/11/02 05:11:12;;;;;;;22.37;10.73;;;;;;;20.40;58.65;98649.94;5278562;27;20069;-81
2022/11/02 05:13:40;;;;;;;23.25;10.65;;;;;;;20.27;58.98;98644.75;5278636;27;20407;-81
2022/11/02 05:16:13;;;;;;;23.02;11.20;;;;;;;19.48;62.01;98653.88;5300259;27;20060;-81
2022/11/02 05:18:40;;;;;;;23.42;10.82;;;;;;;19.94;60.73;98653.28;5300258;27;20062;-81
2022/11/02 05:21:08;;;;;;;22.95;11.85;;;;;;;19.48;62.02;98646.03;5299922;27;20414;-81
2022/11/02 05:23:35;;;;;;;25.20;11.55;;;;;;;19.53;62.30;98648.31;5300261;27;20498;-81
2022/11/02 05:26:05;;;;;;;25.52;11.55;;;;;;;20.30;59.45;98644.53;5300209;27;20045;-80
2022/11/02 05:28:32;;;;;;;20.98;11.15;;;;;;;19.43;62.70;98642.88;5300210;27;20061;-80
2022/11/02 05:31:00;;;;;;;20.73;10.90;;;;;;;19.83;61.66;98646.19;5300644;27;20065;-80
2022/11/02 05:33:29;;;;;;;23.30;12.02;;;;;;;20.76;57.76;98654.31;5300579;27;20064;-80
2022/11/02 05:35:57;;;;;;;22.48;11.12;;;;;;;20.13;59.97;98653.63;5280607;27;20161;-80
2022/11/02 05:38:25;;;;;;;22.70;11.27;;;;;;;19.54;62.02;98657.81;5300624;27;20411;-80
2022/11/02 05:40:56;;;;;;;21.33;10.93;;;;;;;20.26;59.35;98663.22;5300736;27;20053;-80
2022/11/02 05:43:24;;;;;;;24.48;11.05;;;;;;;19.60;61.47;98660.91;5299971;27;20049;-80
2022/11/02 05:45:56;;;;;;;24.48;11.25;;;;;;;19.45;62.21;98663.69;5300219;27;20033;-80
2022/11/02 05:48:23;;;;;;;21.65;11.45;;;;;;;19.52;62.23;98667.56;5300085;27;20114;-80
2022/11/02 05:51:01;;;;;;;21.85;11.07;;;;;;;19.96;61.69;98661.84;5299873;27;20057;-80
2022/11/02 05:53:32;;;;;;;24.85;10.75;;;;;;;20.66;59.04;98677.75;5300363;27;20175;-80
2022/11/02 05:56:01;;;;;;;24.90;10.68;;;;;;;21.04;57.65;98679.28;5299613;27;20098;-80
2022/11/02 05:58:28;;;;;;;22.15;11.12;;;;;;;20.13;60.90;98686.84;5300090;27;20065;-81
2022/11/02 06:00:58;;;;;;;22.73;10.80;;;;;;;20.19;61.16;98689.84;5280836;27;20064;-81
2022/11/02 06:03:25;;;;;;;22.92;10.90;;;;;;;20.01;61.60;98693.81;5299860;27;20050;-81
2022/11/02 06:05:59;;;;;;;21.92;10.88;;;;;;;20.40;60.33;98690.09;5299815;27;20423;-81
2022/11/02 06:08:26;;;;;;;24.67;10.35;;;;;;;20.15;61.82;98688.41;5280465;27;20072;-81
2022/11/02 06:10:53;;;;;;;21.77;10.07;;;;;;;20.46;61.18;98696.72;5299831;27;20060;-81
2022/11/02 06:13:20;;;;;;;18.98;9.25;;;;;;;20.48;60.87;98698.28;5300035;27;20063;-81
2022/11/02 06:15:47;;;;;;;16.92;9.75;;;;;;;20.18;62.39;98698.66;5299582;27;20490;-81
2022/11/02 06:18:14;;;;;;;21.27;10.10;;;;;;;20.21;62.73;98703.72;5299649;27;20172;-81
2022/11/02 06:20:41;;;;;;;21.75;9.70;;;;;;;20.26;62.77;98697.28;5300064;27;20060;-81
2022/11/02 06:23:08;;;;;;;18.83;9.77;;;;;;;20.40;62.46;98703.19;5300186;27;20384;-81
2022/11/02 06:25:35;;;;;;;20.17;10.85;;;;;;;20.50;62.22;98704.22;5299951;27;20049;-81
2022/11/02 06:28:02;;;;;;;18.67;9.18;;;;;;;20.33;62.73;98699.38;5300117;27;20065;-81
2022/11/02 06:30:29;;;;;;;18.60;9.38;;;;;;;20.58;62.35;98701.06;5300159;27;20080;-81
2022/11/02 06:32:55;;;;;;;18.23;10.02;;;;;;;21.61;58.58;98702.06;5299733;27;20064;-81
2022/11/02 06:35:27;;;;;;;19.20;9.85;;;;;;;20.98;60.17;98704.19;5299811;27;20088;-81
2022/11/02 06:37:53;;;;;;;19.33;9.40;;;;;;;20.79;61.11;98702.09;5299513;27;20061;-81
2022/11/02 06:40:20;;;;;;;18.27;9.95;;;;;;;20.93;60.68;98706.31;5300103;27;20057;-81
2022/11/02 06:42:56;;;;;;;18.77;9.55;;;;;;;20.84;60.98;98708.78;5300105;27;20098;-81
2022/11/02 06:45:41;;;;;;;21.55;9.80;;;;;;;20.80;61.19;98711.63;5299585;27;20049;-81
2022/11/02 06:48:08;;;;;;;17.25;9.18;;;;;;;20.82;61.06;98703.66;5280318;27;20088;-81
2022/11/02 06:50:35;;;;;;;19.12;9.45;;;;;;;21.36;59.17;98708.34;5299891;27;20114;-81
2022/11/02 06:53:02;;;;;;;20.20;11.10;;;;;;;22.13;56.58;98711.16;5299664;27;20050;-81
2022/11/02 06:55:29;;;;;;;23.40;11.52;;;;;;;21.77;57.23;98714.84;5301477;27;20050;-80
2022/11/02 06:57:56;;;;;;;23.30;11.45;;;;;;;21.42;58.88;98722.81;5302485;27;20068;-81
2022/11/02 07:00:24;;;;;;;24.15;13.38;;;;;;;21.23;59.65;98716.28;5300219;27;20336;-81
2022/11/02 07:03:08;;;;;;;37.83;22.13;;;;;;;21.51;59.21;98724.75;5302347;27;20054;-81
2022/11/02 07:05:37;;;;;;;54.40;28.87;;;;;;;21.14;60.59;98722.22;5287666;27;20041;-82
2022/11/02 07:08:04;;;;;;;47.67;25.10;;;;;;;20.85;61.93;98721.81;5292415;27;275466;-82
2022/11/02 07:10:31;;;;;;;50.28;25.92;;;;;;;21.50;59.89;98731.78;5310533;27;20036;-82
2022/11/02 07:12:59;;;;;;;48.25;24.17;;;;;;;21.39;60.18;98734.38;5305933;27;20049;-81
2022/11/02 07:15:27;;;;;;;42.25;18.65;;;;;;;21.58;60.08;98737.25;5309652;27;20049;-82
2022/11/02 07:17:54;;;;;;;30.73;15.25;;;;;;;20.92;62.65;98736.13;5303718;27;20132;-84
2022/11/02 07:20:22;;;;;;;23.60;11.93;;;;;;;20.96;62.96;98737.59;5302537;27;20053;-82
2022/11/02 07:22:58;;;;;;;29.65;14.93;;;;;;;22.44;57.56;98754.22;5303567;27;20071;-84
2022/11/02 07:25:32;;;;;;;31.52;16.80;;;;;;;22.42;57.39;98754.31;5307466;27;20055;-83
2022/11/02 07:28:00;;;;;;;40.50;20.77;;;;;;;22.80;56.48;98753.88;5300795;27;20083;-82
2022/11/02 07:30:33;;;;;;;32.63;17.33;;;;;;;22.42;57.86;98753.50;5279511;27;20053;-81
2022/11/02 07:33:00;;;;;;;28.80;13.75;;;;;;;21.84;60.14;98758.91;5298385;27;20109;-81
2022/11/02 07:35:27;;;;;;;20.05;10.05;;;;;;;21.31;62.26;98748.09;5298643;27;20099;-82
2022/11/02 07:37:59;;;;;;;23.77;12.57;;;;;;;21.65;61.77;98748.12;5297710;27;20397;-83
2022/11/02 07:40:27;;;;;;;35.38;17.33;;;;;;;21.54;61.90;98746.34;5279169;27;20129;-83
2022/11/02 07:42:55;;;;;;;27.37;13.98;;;;;;;21.41;62.86;98737.72;5297753;27;20057;-83
2022/11/02 07:45:23;;;;;;;28.77;14.30;;;;;;;21.49;63.15;98737.16;5298653;27;20055;-83
2022/11/02 07:47:50;;;;;;;23.42;12.75;;;;;;;22.17;61.00;98752.00;5297554;27;20061;-82
2022/11/02 07:50:19;;;;;;;29.77;14.60;;;;;;;22.08;61.04;98745.66;5298248;27;20071;-83
2022/11/02 07:52:51;;;;;;;27.37;13.27;;;;;;;22.21;60.52;98746.34;5278713;27;20114;-83
2022/11/02 07:55:20;;;;;;;21.48;10.57;;;;;;;22.71;58.67;98749.34;5298145;27;20068;-82
2022/11/02 07:57:54;;;;;;;23.30;10.40;;;;;;;22.35;60.10;98754.97;5259749;27;20110;-82
2022/11/02 08:00:21;;;;;;;21.42;10.35;;;;;;;22.11;60.99;98753.28;5298031;27;20068;-83
2022/11/02 08:02:53;;;;;;;21.25;9.68;;;;;;;22.14;61.50;98749.59;5298032;27;20049;-81
2022/11/02 08:05:20;;;;;;;19.70;8.63;;;;;;;22.36;61.07;98759.25;5298358;27;20463;-83
2022/11/02 08:07:47;;;;;;;17.67;8.48;;;;;;;22.71;59.79;98757.25;5297744;27;20072;-82
2022/11/02 08:10:14;;;;;;;18.00;8.82;;;;;;;22.59;59.96;98750.34;5298239;27;20064;-83
2022/11/02 08:12:41;;;;;;;19.62;8.73;;;;;;;23.37;57.63;98765.00;5298202;27;20199;-82
2022/11/02 08:15:09;;;;;;;16.30;7.32;;;;;;;23.18;57.72;98757.81;5297928;27;20057;-81
2022/11/02 08:17:36;;;;;;;16.92;7.87;;;;;;;23.34;56.79;98750.28;5297431;27;20061;-83
2022/11/02 08:20:03;;;;;;;13.13;7.00;;;;;;;22.74;58.99;98759.63;5298325;27;20057;-82
2022/11/02 08:22:30;;;;;;;15.77;7.30;;;;;;;22.37;60.77;98753.88;5298296;27;20111;-82
2022/11/02 08:24:57;;;;;;;16.98;6.87;;;;;;;23.14;58.44;98751.13;5297508;27;20046;-82
2022/11/02 08:27:26;;;;;;;15.00;6.35;;;;;;;23.18;58.49;98746.41;5297626;27;20068;-83
2022/11/02 08:29:58;;;;;;;13.82;6.22;;;;;;;23.38;58.81;98740.31;5297991;27;20459;-82
2022/11/02 08:32:25;;;;;;;14.25;6.12;;;;;;;23.73;56.11;98755.81;5298074;27;20136;-82
2022/11/02 08:34:52;;;;;;;12.70;5.70;;;;;;;24.16;54.53;98758.22;5297759;27;20120;-81
2022/11/02 08:37:19;;;;;;;13.23;6.12;;;;;;;23.69;56.12;98769.38;5296849;27;20110;-82
2022/11/02 08:39:46;;;;;;;11.32;5.82;;;;;;;23.52;55.92;98770.78;5297992;27;20468;-82
2022/11/02 08:42:13;;;;;;;13.00;6.15;;;;;;;23.34;56.96;98763.47;5297454;27;20064;-81
2022/11/02 08:44:41;;;;;;;16.10;5.95;;;;;;;23.29;57.26;98763.03;5297122;27;20053;-82
2022/11/02 08:47:08;;;;;;;15.40;6.18;;;;;;;23.74;56.46;98764.56;5297692;27;20061;-83
2022/11/02 08:49:35;;;;;;;13.05;6.10;;;;;;;23.22;57.62;98758.37;5298256;27;20084;-83
2022/11/02 08:52:02;;;;;;;13.43;6.25;;;;;;;23.11;58.48;98755.81;5297717;27;20050;-83
2022/11/02 08:54:29;;;;;;;11.70;5.82;;;;;;;23.11;59.09;98746.13;5297645;27;20061;-81
2022/11/02 08:56:56;;;;;;;14.93;6.05;;;;;;;23.94;55.75;98756.59;5298609;27;20058;-81
2022/11/02 08:59:23;;;;;;;12.40;6.10;;;;;;;23.62;57.57;98753.28;5297647;27;20060;-82
2022/11/02 09:01:49;;;;;;;12.98;5.93;;;;;;;24.03;55.74;98747.06;5298721;27;20049;-82
2022/11/02 09:04:17;;;;;;;14.55;5.82;;;;;;;24.82;53.61;98755.03;5297594;27;20079;-83
2022/11/02 09:06:44;;;;;;;12.27;5.78;;;;;;;24.74;53.04;98749.59;5297189;27;20062;-81
2022/11/02 09:09:11;;;;;;;12.63;5.95;;;;;;;24.38;54.97;98754.56;5298139;27;20109;-83
2022/11/02 09:11:37;;;;;;;11.00;5.28;;;;;;;24.72;53.16;98752.38;5297979;27;20057;-83
2022/11/02 09:14:06;;;;;;;15.45;5.80;;;;;;;24.07;53.59;98748.47;5296943;27;20088;-83
2022/11/02 09:16:33;;;;;;;12.00;5.55;;;;;;;22.85;58.50;98757.94;5297557;27;20064;-84
2022/11/02 09:19:06;;;;;;;12.37;5.20;;;;;;;23.58;56.90;98757.06;5297731;27;20072;-83
2022/11/02 09:21:33;;;;;;;12.37;5.20;;;;;;;24.69;53.32;98763.22;5297809;27;20054;-84
2022/11/02 09:24:00;;;;;;;14.48;4.70;;;;;;;23.98;54.64;98758.97;5297512;27;20045;-82
2022/11/02 09:26:27;;;;;;;11.05;4.80;;;;;;;24.03;53.17;98752.34;5296877;27;20053;-84
2022/11/02 09:28:54;;;;;;;12.35;4.50;;;;;;;25.15;51.07;98748.53;5297652;27;20061;-85
2022/11/02 09:31:21;;;;;;;11.15;4.70;;;;;;;24.82;50.23;98752.41;5297798;27;20068;-85
2022/11/02 09:33:48;;;;;;;11.30;4.72;;;;;;;25.74;47.98;98755.41;5297272;27;20480;-85
2022/11/02 09:36:15;;;;;;;10.07;4.45;;;;;;;25.30;48.69;98748.91;5297661;27;20138;-84
2022/11/02 09:38:42;;;;;;;14.05;4.60;;;;;;;26.45;45.34;98754.78;5296858;27;20123;-84
2022/11/02 09:41:19;;;;;;;9.82;4.30;;;;;;;25.67;46.45;98749.81;5277934;27;20057;-85
2022/11/02 09:44:04;;;;;;;13.18;5.12;;;;;;;25.91;46.84;98745.84;5277884;27;20064;-83
2022/11/02 09:46:40;;;;;;;13.10;5.03;;;;;;;26.08;46.19;98744.25;5297407;27;20065;-84
2022/11/02 09:49:18;;;;;;;10.65;4.32;;;;;;;27.20;42.78;98745.59;5277800;27;20060;-83
2022/11/02 09:51:50;;;;;;;10.75;4.45;;;;;;;25.75;45.99;98751.78;5278602;27;20121;-84
2022/11/02 09:54:44;;;;;;;10.07;4.28;;;;;;;27.63;42.83;98749.19;5278277;27;20449;-83
2022/11/02 09:57:19;;;;;;;10.50;4.75;;;;;;;26.61;44.76;98746.22;5298118;27;20150;-83
2022/11/02 09:59:46;;;;;;;10.77;4.85;;;;;;;26.38;45.37;98745.81;5279301;27;20065;-84
2022/11/02 10:02:55;;;;;;;9.43;4.00;;;;;;;27.88;41.53;98740.44;5298520;27;20068;-82
2022/11/02 10:05:37;;;;;;;9.07;3.65;;;;;;;28.30;40.75;98746.78;5282557;27;20053;-82
2022/11/02 10:08:22;;;;;;;9.15;4.03;;;;;;;29.15;38.83;98748.25;5301695;27;20116;-83
2022/11/02 10:10:55;;;;;;;9.00;4.00;;;;;;;29.81;37.14;98749.84;5301713;27;20060;-83
2022/11/02 10:13:41;;;;;;;9.48;3.83;;;;;;;26.72;43.23;98748.63;5301066;27;20045;-82
2022/11/02 10:16:20;;;;;;;8.30;3.53;;;;;;;28.62;40.00;98746.88;5304084;27;20050;-82
2022/11/02 10:18:49;;;;;;;9.02;3.00;;;;;;;28.97;39.56;98744.94;5305832;27;20044;-82
2022/11/02 10:21:24;;;;;;;11.10;3.62;;;;;;;28.39;39.52;98746.66;5285782;27;20069;-84
2022/11/02 10:23:54;;;;;;;10.63;3.20;;;;;;;26.53;43.57;98741.66;5307917;27;20741;-83
2022/11/02 10:26:22;;;;;;;8.95;3.50;;;;;;;27.36;42.38;98747.56;5301754;27;20075;-81
2022/11/02 10:29:11;;;;;;;6.60;2.95;;;;;;;28.76;38.63;98742.72;5302463;27;20069;-81
2022/11/02 10:31:38;;;;;;;8.93;3.10;;;;;;;27.24;41.21;98733.72;5285447;27;20071;-82
2022/11/02 10:34:13;;;;;;;8.63;3.12;;;;;;;28.04;39.93;98738.84;5306513;27;20050;-82
2022/11/02 10:37:02;;;;;;;8.98;3.37;;;;;;;28.03;39.94;98740.66;5306106;27;20379;-82
2022/11/02 10:39:53;;;;;;;11.30;3.30;;;;;;;27.29;41.49;98743.84;5302964;27;20061;-83
2022/11/02 10:42:31;;;;;;;9.73;3.25;;;;;;;27.17;40.84;98735.31;5301177;27;20031;-82
2022/11/02 10:45:04;;;;;;;13.43;3.87;;;;;;;27.69;40.24;98739.84;5314492;27;20030;-83
2022/11/02 10:48:00;;;;;;;10.35;3.17;;;;;;;28.88;38.23;98741.44;5307957;27;20404;-82
2022/11/02 10:50:45;;;;;;;12.00;4.75;;;;;;;27.09;41.52;98738.72;5301279;27;20064;-81
2022/11/02 10:53:14;;;;;;;8.68;3.22;;;;;;;28.34;37.45;98737.50;5283573;27;20064;-81
2022/11/02 10:56:26;;;;;;;9.15;3.47;;;;;;;25.94;43.53;98733.16;5301022;27;20049;-81
2022/11/02 10:58:58;;;;;;;9.43;3.35;;;;;;;25.87;45.22;98732.09;5299193;27;20145;-81
2022/11/02 11:01:26;;;;;;;6.47;2.50;;;;;;;26.01;44.92;98732.59;5299777;27;20404;-84
2022/11/02 11:03:54;;;;;;;5.50;2.17;;;;;;;24.85;44.02;98724.88;5299331;27;20427;-84
2022/11/02 11:06:35;;;;;;;4.90;1.92;;;;;;;24.35;44.46;98727.59;5299114;27;20120;-83
2022/11/02 11:09:15;;;;;;;4.65;1.80;;;;;;;23.90;44.33;98723.56;5280082;27;20045;-83
2022/11/02 11:11:54;;;;;;;7.80;2.12;;;;;;;23.81;44.43;98732.25;5299459;27;20061;-81
2022/11/02 11:14:22;;;;;;;5.32;1.90;;;;;;;23.13;45.42;98730.19;5299619;27;20745;-81
2022/11/02 11:17:17;;;;;;;6.05;2.25;;;;;;;23.49;45.28;98726.25;5283258;27;20061;-81
2022/11/02 11:20:08;;;;;;;6.00;2.20;;;;;;;23.05;47.56;98730.81;5298739;27;20050;-82
2022/11/02 11:22:36;;;;;;;8.07;2.42;;;;;;;22.93;48.32;98729.22;5280940;27;20606;-82
2022/11/02 11:25:09;;;;;;;5.85;2.20;;;;;;;23.33;46.21;98719.66;5300024;27;20057;-82
2022/11/02 11:27:46;;;;;;;4.25;1.80;;;;;;;22.66;48.83;98722.59;5299833;27;20021;-82
2022/11/02 11:30:36;;;;;;;7.20;2.50;;;;;;;22.46;48.77;98729.47;5281145;27;20056;-83
2022/11/02 11:33:23;;;;;;;7.50;2.70;;;;;;;22.40;49.21;98732.59;5308135;27;20053;-83
2022/11/02 11:35:51;;;;;;;6.95;2.30;;;;;;;22.56;51.01;98720.84;5312076;27;20081;-83
2022/11/02 11:38:21;;;;;;;7.72;2.30;;;;;;;23.03;49.18;98720.44;5313256;27;20029;-82
2022/11/02 11:40:53;;;;;;;9.57;2.83;;;;;;;22.92;49.36;98722.28;5293643;27;20045;-83
2022/11/02 11:43:23;;;;;;;7.95;2.65;;;;;;;23.22;48.19;98718.91;5292916;27;20079;-84
2022/11/02 11:45:59;;;;;;;6.85;2.35;;;;;;;23.58;46.43;98721.06;5308167;27;20026;-84
2022/11/02 11:48:38;;;;;;;5.50;2.35;;;;;;;23.64;46.96;98715.28;5306441;27;20068;-85
2022/11/02 11:51:19;;;;;;;5.55;2.40;;;;;;;22.56;48.37;98719.06;5300719;27;20050;-86
2022/11/02 11:54:17;;;;;;;9.65;2.80;;;;;;;22.36;48.81;98717.19;5300942;27;20057;-83